sensor_id;sensor_type;location;lat;lon;timestamp;temperature;humidity
37594;DHT22;23441;50.856;6.076;2022-12-18T00:01:42;-7.00;99.90
37594;DHT22;23441;50.856;6.076;2022-12-18T00:04:18;-7.00;99.90
37594;DHT22;23441;50.856;6.076;2022-12-18T00:06:45;-7.10;99.90
37594;DHT22;23441;50.856;6.076;2022-12-18T00:09:10;-7.10;99.90
37594;DHT22;23441;50.856;6.076;2022-12-18T00:11:36;-7.10;99.90
37594;DHT22;23441;50.856;6.076;2022-12-18T00:14:01;-7.10;99.90
37594;DHT22;23441;50.856;6.076;2022-12-18T00:16:28;-7.10;99.90
37594;DHT22;23441;50.856;6.076;2022-12-18T00:18:59;-7.20;99.90
37594;DHT22;23441;50.856;6.076;2022-12-18T00:21:25;-7.20;99.90
37594;DHT22;23441;50.856;6.076;2022-12-18T00:23:51;-7.20;99.90
37594;DHT22;23441;50.856;6.076;2022-12-18T00:26:20;-7.30;99.90
37594;DHT22;23441;50.856;6.076;2022-12-18T00:28:47;-7.20;99.90
37594;DHT22;23441;50.856;6.076;2022-12-18T00:31:15;-7.20;99.90
37594;DHT22;23441;50.856;6.076;2022-12-18T00:33:42;-7.20;99.90
37594;DHT22;23441;50.856;6.076;2022-12-18T00:36:22;-7.20;99.90
37594;DHT22;23441;50.856;6.076;2022-12-18T00:38:48;-7.20;99.90
37594;DHT22;23441;50.856;6.076;2022-12-18T00:41:15;-7.20;99.90
37594;DHT22;23441;50.856;6.076;2022-12-18T00:44:02;-7.30;99.90
37594;DHT22;23441;50.856;6.076;2022-12-18T00:46:28;-7.20;99.90
37594;DHT22;23441;50.856;6.076;2022-12-18T00:48:53;-7.20;99.90
37594;DHT22;23441;50.856;6.076;2022-12-18T00:51:19;-7.20;99.90
37594;DHT22;23441;50.856;6.076;2022-12-18T00:53:44;-7.30;99.90
37594;DHT22;23441;50.856;6.076;2022-12-18T00:56:10;-7.30;99.90
37594;DHT22;23441;50.856;6.076;2022-12-18T00:58:35;-7.30;99.90
37594;DHT22;23441;50.856;6.076;2022-12-18T01:01:03;-7.30;99.90
37594;DHT22;23441;50.856;6.076;2022-12-18T01:03:28;-7.30;99.90
37594;DHT22;23441;50.856;6.076;2022-12-18T01:05:54;-7.30;99.90
37594;DHT22;23441;50.856;6.076;2022-12-18T01:08:19;-7.40;99.90
37594;DHT22;23441;50.856;6.076;2022-12-18T01:10:45;-7.40;99.90
37594;DHT22;23441;50.856;6.076;2022-12-18T01:13:11;-7.40;99.90
37594;DHT22;23441;50.856;6.076;2022-12-18T01:15:36;-7.30;99.90
37594;DHT22;23441;50.856;6.076;2022-12-18T01:18:06;-7.30;99.90
37594;DHT22;23441;50.856;6.076;2022-12-18T01:20:32;-7.30;99.90
37594;DHT22;23441;50.856;6.076;2022-12-18T01:22:58;-7.40;99.90
37594;DHT22;23441;50.856;6.076;2022-12-18T01:25:23;-7.40;99.90
37594;DHT22;23441;50.856;6.076;2022-12-18T01:27:49;-7.40;99.90
37594;DHT22;23441;50.856;6.076;2022-12-18T01:30:15;-7.40;99.90
37594;DHT22;23441;50.856;6.076;2022-12-18T01:32:40;-7.40;99.90
37594;DHT22;23441;50.856;6.076;2022-12-18T01:35:06;-7.40;99.90
37594;DHT22;23441;50.856;6.076;2022-12-18T01:37:32;-7.40;99.90
37594;DHT22;23441;50.856;6.076;2022-12-18T01:39:58;-7.40;99.90
37594;DHT22;23441;50.856;6.076;2022-12-18T01:42:23;-7.40;99.90
37594;DHT22;23441;50.856;6.076;2022-12-18T01:45:04;-7.40;99.90
37594;DHT22;23441;50.856;6.076;2022-12-18T01:47:43;-7.40;99.90
37594;DHT22;23441;50.856;6.076;2022-12-18T01:50:15;-7.40;99.90
37594;DHT22;23441;50.856;6.076;2022-12-18T01:52:43;-7.40;99.90
37594;DHT22;23441;50.856;6.076;2022-12-18T01:55:11;-7.40;99.90
37594;DHT22;23441;50.856;6.076;2022-12-18T01:57:38;-7.30;99.90
37594;DHT22;23441;50.856;6.076;2022-12-18T02:00:08;-7.20;99.90
37594;DHT22;23441;50.856;6.076;2022-12-18T02:02:34;-7.20;99.90
37594;DHT22;23441;50.856;6.076;2022-12-18T02:05:00;-7.10;99.90
37594;DHT22;23441;50.856;6.076;2022-12-18T02:10:35;-7.00;99.90
37594;DHT22;23441;50.856;6.076;2022-12-18T02:18:47;-7.00;99.90
37594;DHT22;23441;50.856;6.076;2022-12-18T02:23:59;-6.90;99.90
37594;DHT22;23441;50.856;6.076;2022-12-18T02:26:39;-6.90;99.90
37594;DHT22;23441;50.856;6.076;2022-12-18T02:29:13;-6.90;99.90
37594;DHT22;23441;50.856;6.076;2022-12-18T02:31:43;-6.90;99.90
37594;DHT22;23441;50.856;6.076;2022-12-18T02:34:11;-6.90;99.90
37594;DHT22;23441;50.856;6.076;2022-12-18T02:36:40;-6.90;99.90
37594;DHT22;23441;50.856;6.076;2022-12-18T02:39:07;-6.90;99.90
37594;DHT22;23441;50.856;6.076;2022-12-18T02:41:35;-6.80;99.90
37594;DHT22;23441;50.856;6.076;2022-12-18T02:44:07;-6.70;99.90
37594;DHT22;23441;50.856;6.076;2022-12-18T02:46:43;-6.70;99.90
37594;DHT22;23441;50.856;6.076;2022-12-18T02:52:07;-6.70;99.90
37594;DHT22;23441;50.856;6.076;2022-12-18T02:57:44;-6.90;99.90
37594;DHT22;23441;50.856;6.076;2022-12-18T03:00:16;-6.80;99.90
37594;DHT22;23441;50.856;6.076;2022-12-18T03:05:22;-6.80;99.90
37594;DHT22;23441;50.856;6.076;2022-12-18T03:07:59;-6.80;99.90
37594;DHT22;23441;50.856;6.076;2022-12-18T03:10:31;-6.80;99.90
37594;DHT22;23441;50.856;6.076;2022-12-18T03:13:15;-6.70;99.90
37594;DHT22;23441;50.856;6.076;2022-12-18T03:15:47;-6.70;99.90
37594;DHT22;23441;50.856;6.076;2022-12-18T03:18:42;-6.70;99.90
37594;DHT22;23441;50.856;6.076;2022-12-18T03:21:12;-6.70;99.90
37594;DHT22;23441;50.856;6.076;2022-12-18T03:23:49;-6.70;99.90
37594;DHT22;23441;50.856;6.076;2022-12-18T03:26:23;-6.80;99.90
37594;DHT22;23441;50.856;6.076;2022-12-18T03:28:56;-6.80;99.90
37594;DHT22;23441;50.856;6.076;2022-12-18T03:31:25;-6.80;99.90
37594;DHT22;23441;50.856;6.076;2022-12-18T03:33:55;-6.80;99.90
37594;DHT22;23441;50.856;6.076;2022-12-18T03:36:22;-6.80;99.90
37594;DHT22;23441;50.856;6.076;2022-12-18T03:38:49;-6.80;99.90
37594;DHT22;23441;50.856;6.076;2022-12-18T03:44:01;-6.90;99.90
37594;DHT22;23441;50.856;6.076;2022-12-18T03:49:25;-7.00;99.90
37594;DHT22;23441;50.856;6.076;2022-12-18T03:52:02;-7.00;99.90
37594;DHT22;23441;50.856;6.076;2022-12-18T03:54:29;-7.00;99.90
37594;DHT22;23441;50.856;6.076;2022-12-18T03:56:59;-6.90;99.90
37594;DHT22;23441;50.856;6.076;2022-12-18T03:59:28;-6.90;99.90
37594;DHT22;23441;50.856;6.076;2022-12-18T04:01:55;-6.90;99.90
37594;DHT22;23441;50.856;6.076;2022-12-18T04:04:24;-6.90;99.90
37594;DHT22;23441;50.856;6.076;2022-12-18T04:06:50;-6.90;99.90
37594;DHT22;23441;50.856;6.076;2022-12-18T04:09:16;-6.90;99.90
37594;DHT22;23441;50.856;6.076;2022-12-18T04:11:42;-6.90;99.90
37594;DHT22;23441;50.856;6.076;2022-12-18T04:14:09;-6.90;99.90
37594;DHT22;23441;50.856;6.076;2022-12-18T04:16:35;-6.90;99.90
37594;DHT22;23441;50.856;6.076;2022-12-18T04:19:01;-7.00;99.90
37594;DHT22;23441;50.856;6.076;2022-12-18T04:21:27;-6.90;99.90
37594;DHT22;23441;50.856;6.076;2022-12-18T04:23:52;-6.90;99.90
37594;DHT22;23441;50.856;6.076;2022-12-18T04:26:18;-6.90;99.90
37594;DHT22;23441;50.856;6.076;2022-12-18T04:28:43;-6.90;99.90
37594;DHT22;23441;50.856;6.076;2022-12-18T04:31:09;-6.90;99.90
37594;DHT22;23441;50.856;6.076;2022-12-18T04:33:35;-6.90;99.90
37594;DHT22;23441;50.856;6.076;2022-12-18T04:36:00;-6.90;99.90
37594;DHT22;23441;50.856;6.076;2022-12-18T04:38:26;-6.90;99.90
37594;DHT22;23441;50.856;6.076;2022-12-18T04:40:52;-6.90;99.90
37594;DHT22;23441;50.856;6.076;2022-12-18T04:43:17;-6.90;99.90
37594;DHT22;23441;50.856;6.076;2022-12-18T04:45:43;-6.90;99.90
37594;DHT22;23441;50.856;6.076;2022-12-18T04:48:08;-6.90;99.90
37594;DHT22;23441;50.856;6.076;2022-12-18T04:50:34;-6.90;99.90
37594;DHT22;23441;50.856;6.076;2022-12-18T04:53:00;-6.90;99.90
37594;DHT22;23441;50.856;6.076;2022-12-18T04:55:26;-6.90;99.90
37594;DHT22;23441;50.856;6.076;2022-12-18T04:57:52;-6.80;99.90
37594;DHT22;23441;50.856;6.076;2022-12-18T05:00:18;-6.80;99.90
37594;DHT22;23441;50.856;6.076;2022-12-18T05:02:43;-6.70;99.90
37594;DHT22;23441;50.856;6.076;2022-12-18T05:05:09;-6.80;99.90
37594;DHT22;23441;50.856;6.076;2022-12-18T05:07:35;-6.70;99.90
37594;DHT22;23441;50.856;6.076;2022-12-18T05:10:01;-6.80;99.90
37594;DHT22;23441;50.856;6.076;2022-12-18T05:12:26;-6.80;99.90
37594;DHT22;23441;50.856;6.076;2022-12-18T05:14:52;-6.90;99.90
37594;DHT22;23441;50.856;6.076;2022-12-18T05:17:18;-7.00;99.90
37594;DHT22;23441;50.856;6.076;2022-12-18T05:19:43;-7.00;99.90
37594;DHT22;23441;50.856;6.076;2022-12-18T05:22:09;-6.90;99.90
37594;DHT22;23441;50.856;6.076;2022-12-18T05:24:35;-7.00;99.90
37594;DHT22;23441;50.856;6.076;2022-12-18T05:27:01;-7.10;99.90
37594;DHT22;23441;50.856;6.076;2022-12-18T05:29:27;-7.10;99.90
37594;DHT22;23441;50.856;6.076;2022-12-18T05:31:52;-7.10;99.90
37594;DHT22;23441;50.856;6.076;2022-12-18T05:34:18;-7.10;99.90
37594;DHT22;23441;50.856;6.076;2022-12-18T05:36:44;-7.10;99.90
37594;DHT22;23441;50.856;6.076;2022-12-18T05:39:09;-7.10;99.90
37594;DHT22;23441;50.856;6.076;2022-12-18T05:41:35;-7.10;99.90
37594;DHT22;23441;50.856;6.076;2022-12-18T05:44:00;-7.00;99.90
37594;DHT22;23441;50.856;6.076;2022-12-18T05:46:26;-7.00;99.90
37594;DHT22;23441;50.856;6.076;2022-12-18T05:48:52;-7.00;99.90
37594;DHT22;23441;50.856;6.076;2022-12-18T05:51:20;-7.00;99.90
37594;DHT22;23441;50.856;6.076;2022-12-18T05:53:46;-6.90;99.90
37594;DHT22;23441;50.856;6.076;2022-12-18T05:56:15;-6.80;99.90
37594;DHT22;23441;50.856;6.076;2022-12-18T05:58:41;-6.70;99.90
37594;DHT22;23441;50.856;6.076;2022-12-18T06:01:17;-6.70;99.90
37594;DHT22;23441;50.856;6.076;2022-12-18T06:03:43;-6.70;99.90
37594;DHT22;23441;50.856;6.076;2022-12-18T06:06:35;-6.70;99.90
37594;DHT22;23441;50.856;6.076;2022-12-18T06:09:02;-6.70;99.90
37594;DHT22;23441;50.856;6.076;2022-12-18T06:11:34;-6.60;99.90
37594;DHT22;23441;50.856;6.076;2022-12-18T06:14:00;-6.60;99.90
37594;DHT22;23441;50.856;6.076;2022-12-18T06:16:27;-6.70;99.90
37594;DHT22;23441;50.856;6.076;2022-12-18T06:18:55;-6.70;99.90
37594;DHT22;23441;50.856;6.076;2022-12-18T06:21:21;-6.80;99.90
37594;DHT22;23441;50.856;6.076;2022-12-18T06:23:46;-6.80;99.90
37594;DHT22;23441;50.856;6.076;2022-12-18T06:26:13;-6.80;99.90
37594;DHT22;23441;50.856;6.076;2022-12-18T06:28:39;-6.90;99.90
37594;DHT22;23441;50.856;6.076;2022-12-18T06:31:05;-6.90;99.90
37594;DHT22;23441;50.856;6.076;2022-12-18T06:33:31;-6.90;99.90
37594;DHT22;23441;50.856;6.076;2022-12-18T06:36:09;-7.00;99.90
37594;DHT22;23441;50.856;6.076;2022-12-18T06:38:36;-7.00;99.90
37594;DHT22;23441;50.856;6.076;2022-12-18T06:41:10;-7.00;99.90
37594;DHT22;23441;50.856;6.076;2022-12-18T06:43:37;-7.00;99.90
37594;DHT22;23441;50.856;6.076;2022-12-18T06:46:03;-7.00;99.90
37594;DHT22;23441;50.856;6.076;2022-12-18T06:48:30;-6.90;99.90
37594;DHT22;23441;50.856;6.076;2022-12-18T06:50:55;-6.80;99.90
37594;DHT22;23441;50.856;6.076;2022-12-18T06:53:21;-6.80;99.90
37594;DHT22;23441;50.856;6.076;2022-12-18T06:55:47;-6.80;99.90
37594;DHT22;23441;50.856;6.076;2022-12-18T06:58:13;-6.80;99.90
37594;DHT22;23441;50.856;6.076;2022-12-18T07:00:38;-6.80;99.90
37594;DHT22;23441;50.856;6.076;2022-12-18T07:03:04;-6.70;99.90
37594;DHT22;23441;50.856;6.076;2022-12-18T07:05:30;-6.70;99.90
37594;DHT22;23441;50.856;6.076;2022-12-18T07:07:55;-6.70;99.90
37594;DHT22;23441;50.856;6.076;2022-12-18T07:10:21;-6.70;99.90
37594;DHT22;23441;50.856;6.076;2022-12-18T07:12:47;-6.70;99.90
37594;DHT22;23441;50.856;6.076;2022-12-18T07:15:12;-6.70;99.90
37594;DHT22;23441;50.856;6.076;2022-12-18T07:17:38;-6.70;99.90
37594;DHT22;23441;50.856;6.076;2022-12-18T07:20:04;-6.70;99.90
37594;DHT22;23441;50.856;6.076;2022-12-18T07:22:29;-6.80;99.90
37594;DHT22;23441;50.856;6.076;2022-12-18T07:24:55;-6.80;99.90
37594;DHT22;23441;50.856;6.076;2022-12-18T07:27:22;-6.80;99.90
37594;DHT22;23441;50.856;6.076;2022-12-18T07:29:47;-6.80;99.90
37594;DHT22;23441;50.856;6.076;2022-12-18T07:32:13;-6.80;99.90
37594;DHT22;23441;50.856;6.076;2022-12-18T07:34:39;-6.80;99.90
37594;DHT22;23441;50.856;6.076;2022-12-18T07:37:04;-6.80;99.90
37594;DHT22;23441;50.856;6.076;2022-12-18T07:39:30;-6.80;99.90
37594;DHT22;23441;50.856;6.076;2022-12-18T07:41:56;-6.80;99.90
37594;DHT22;23441;50.856;6.076;2022-12-18T07:44:40;-6.80;99.90
37594;DHT22;23441;50.856;6.076;2022-12-18T07:47:06;-6.80;99.90
37594;DHT22;23441;50.856;6.076;2022-12-18T07:49:31;-6.80;99.90
37594;DHT22;23441;50.856;6.076;2022-12-18T07:51:57;-6.80;99.90
37594;DHT22;23441;50.856;6.076;2022-12-18T07:54:24;-6.80;99.90
37594;DHT22;23441;50.856;6.076;2022-12-18T07:56:50;-6.80;99.90
37594;DHT22;23441;50.856;6.076;2022-12-18T07:59:16;-6.80;99.90
37594;DHT22;23441;50.856;6.076;2022-12-18T08:01:41;-6.70;99.90
37594;DHT22;23441;50.856;6.076;2022-12-18T08:04:07;-6.70;99.90
37594;DHT22;23441;50.856;6.076;2022-12-18T08:06:32;-6.60;99.90
37594;DHT22;23441;50.856;6.076;2022-12-18T08:08:58;-6.50;99.90
37594;DHT22;23441;50.856;6.076;2022-12-18T08:11:26;-6.50;99.90
37594;DHT22;23441;50.856;6.076;2022-12-18T08:13:52;-6.40;99.90
37594;DHT22;23441;50.856;6.076;2022-12-18T08:16:19;-6.40;99.90
37594;DHT22;23441;50.856;6.076;2022-12-18T08:18:44;-6.30;99.90
37594;DHT22;23441;50.856;6.076;2022-12-18T08:21:19;-6.30;99.90
37594;DHT22;23441;50.856;6.076;2022-12-18T08:23:46;-6.20;99.90
37594;DHT22;23441;50.856;6.076;2022-12-18T08:26:12;-6.20;99.90
37594;DHT22;23441;50.856;6.076;2022-12-18T08:28:39;-6.00;99.90
37594;DHT22;23441;50.856;6.076;2022-12-18T08:31:06;-6.00;99.90
37594;DHT22;23441;50.856;6.076;2022-12-18T08:33:32;-6.00;99.90
37594;DHT22;23441;50.856;6.076;2022-12-18T08:35:59;-6.00;99.90
37594;DHT22;23441;50.856;6.076;2022-12-18T08:38:24;-5.90;99.90
37594;DHT22;23441;50.856;6.076;2022-12-18T08:41:04;-5.80;99.90
37594;DHT22;23441;50.856;6.076;2022-12-18T08:43:30;-5.70;99.90
37594;DHT22;23441;50.856;6.076;2022-12-18T08:46:18;-5.60;99.90
37594;DHT22;23441;50.856;6.076;2022-12-18T08:48:44;-5.50;99.90
37594;DHT22;23441;50.856;6.076;2022-12-18T08:51:10;-5.40;99.90
37594;DHT22;23441;50.856;6.076;2022-12-18T08:53:36;-5.40;99.90
37594;DHT22;23441;50.856;6.076;2022-12-18T08:56:04;-5.30;99.90
37594;DHT22;23441;50.856;6.076;2022-12-18T08:58:29;-5.30;99.90
37594;DHT22;23441;50.856;6.076;2022-12-18T09:01:02;-5.20;99.90
37594;DHT22;23441;50.856;6.076;2022-12-18T09:03:28;-5.10;99.90
37594;DHT22;23441;50.856;6.076;2022-12-18T09:05:54;-5.00;99.90
37594;DHT22;23441;50.856;6.076;2022-12-18T09:08:20;-4.90;99.90
37594;DHT22;23441;50.856;6.076;2022-12-18T09:10:48;-4.80;99.90
37594;DHT22;23441;50.856;6.076;2022-12-18T09:13:14;-4.70;99.90
37594;DHT22;23441;50.856;6.076;2022-12-18T09:15:42;-4.50;99.90
37594;DHT22;23441;50.856;6.076;2022-12-18T09:18:08;-4.40;99.90
37594;DHT22;23441;50.856;6.076;2022-12-18T09:20:35;-4.30;99.90
37594;DHT22;23441;50.856;6.076;2022-12-18T09:23:01;-4.20;99.90
37594;DHT22;23441;50.856;6.076;2022-12-18T09:25:29;-4.10;99.90
37594;DHT22;23441;50.856;6.076;2022-12-18T09:27:59;-4.00;99.90
37594;DHT22;23441;50.856;6.076;2022-12-18T09:30:24;-3.90;99.90
37594;DHT22;23441;50.856;6.076;2022-12-18T09:32:50;-3.90;99.90
37594;DHT22;23441;50.856;6.076;2022-12-18T09:35:16;-3.70;99.90
37594;DHT22;23441;50.856;6.076;2022-12-18T09:37:41;-3.70;99.90
37594;DHT22;23441;50.856;6.076;2022-12-18T09:40:14;-3.60;99.90
37594;DHT22;23441;50.856;6.076;2022-12-18T09:42:45;-3.50;99.90
37594;DHT22;23441;50.856;6.076;2022-12-18T09:45:13;-3.40;99.90
37594;DHT22;23441;50.856;6.076;2022-12-18T09:47:40;-3.30;99.90
37594;DHT22;23441;50.856;6.076;2022-12-18T09:50:29;-3.20;99.90
37594;DHT22;23441;50.856;6.076;2022-12-18T09:53:02;-3.10;99.90
37594;DHT22;23441;50.856;6.076;2022-12-18T09:55:36;-3.00;99.90
37594;DHT22;23441;50.856;6.076;2022-12-18T09:58:15;-2.90;99.90
37594;DHT22;23441;50.856;6.076;2022-12-18T10:00:42;-2.80;99.90
37594;DHT22;23441;50.856;6.076;2022-12-18T10:03:13;-2.80;99.90
37594;DHT22;23441;50.856;6.076;2022-12-18T10:11:51;-2.60;99.90
37594;DHT22;23441;50.856;6.076;2022-12-18T10:14:22;-2.50;99.90
37594;DHT22;23441;50.856;6.076;2022-12-18T10:19:50;-2.40;99.90
37594;DHT22;23441;50.856;6.076;2022-12-18T10:27:45;-2.20;99.90
37594;DHT22;23441;50.856;6.076;2022-12-18T10:30:16;-2.10;99.90
37594;DHT22;23441;50.856;6.076;2022-12-18T10:32:42;-2.10;99.90
37594;DHT22;23441;50.856;6.076;2022-12-18T10:35:18;-2.00;99.90
37594;DHT22;23441;50.856;6.076;2022-12-18T10:40:26;-2.00;99.90
37594;DHT22;23441;50.856;6.076;2022-12-18T10:43:12;-1.90;99.90
37594;DHT22;23441;50.856;6.076;2022-12-18T10:45:38;-1.80;99.90
37594;DHT22;23441;50.856;6.076;2022-12-18T10:48:05;-1.80;99.90
37594;DHT22;23441;50.856;6.076;2022-12-18T10:50:47;-1.80;99.90
37594;DHT22;23441;50.856;6.076;2022-12-18T10:53:27;-1.70;99.90
37594;DHT22;23441;50.856;6.076;2022-12-18T10:55:55;-1.60;99.90
37594;DHT22;23441;50.856;6.076;2022-12-18T10:58:34;-1.70;99.90
37594;DHT22;23441;50.856;6.076;2022-12-18T11:06:08;-1.50;99.90
37594;DHT22;23441;50.856;6.076;2022-12-18T11:08:34;-1.40;99.90
37594;DHT22;23441;50.856;6.076;2022-12-18T11:11:00;-1.40;99.90
37594;DHT22;23441;50.856;6.076;2022-12-18T11:13:28;-1.30;99.90
37594;DHT22;23441;50.856;6.076;2022-12-18T11:15:55;-1.30;99.90
37594;DHT22;23441;50.856;6.076;2022-12-18T11:18:25;-1.30;99.90
37594;DHT22;23441;50.856;6.076;2022-12-18T11:20:57;-1.20;99.90
37594;DHT22;23441;50.856;6.076;2022-12-18T11:23:23;-1.10;99.90
37594;DHT22;23441;50.856;6.076;2022-12-18T11:25:52;-1.00;99.90
37594;DHT22;23441;50.856;6.076;2022-12-18T11:31:23;-1.10;99.90
37594;DHT22;23441;50.856;6.076;2022-12-18T11:33:54;-1.00;99.90
37594;DHT22;23441;50.856;6.076;2022-12-18T11:36:22;-1.00;99.90
37594;DHT22;23441;50.856;6.076;2022-12-18T11:38:49;-0.90;99.90
37594;DHT22;23441;50.856;6.076;2022-12-18T11:41:34;-0.90;99.90
37594;DHT22;23441;50.856;6.076;2022-12-18T11:44:28;-0.80;99.90
37594;DHT22;23441;50.856;6.076;2022-12-18T11:49:42;-0.70;99.90
37594;DHT22;23441;50.856;6.076;2022-12-18T11:52:36;-0.70;99.90
37594;DHT22;23441;50.856;6.076;2022-12-18T11:55:14;-0.70;99.90
37594;DHT22;23441;50.856;6.076;2022-12-18T11:57:57;-0.50;99.90
37594;DHT22;23441;50.856;6.076;2022-12-18T12:00:26;-0.50;99.90
37594;DHT22;23441;50.856;6.076;2022-12-18T12:08:04;-0.50;99.90
37594;DHT22;23441;50.856;6.076;2022-12-18T12:13:16;-0.50;99.90
37594;DHT22;23441;50.856;6.076;2022-12-18T12:21:55;-0.30;99.90
37594;DHT22;23441;50.856;6.076;2022-12-18T12:27:16;-0.20;99.90
37594;DHT22;23441;50.856;6.076;2022-12-18T12:37:28;0.00;99.90
37594;DHT22;23441;50.856;6.076;2022-12-18T12:40:00;0.00;99.90
37594;DHT22;23441;50.856;6.076;2022-12-18T12:42:41;0.00;99.90
37594;DHT22;23441;50.856;6.076;2022-12-18T12:45:37;0.00;99.90
37594;DHT22;23441;50.856;6.076;2022-12-18T12:48:06;0.10;99.90
37594;DHT22;23441;50.856;6.076;2022-12-18T12:50:34;0.00;99.90
37594;DHT22;23441;50.856;6.076;2022-12-18T12:53:01;0.10;99.90
37594;DHT22;23441;50.856;6.076;2022-12-18T12:55:32;0.10;99.90
37594;DHT22;23441;50.856;6.076;2022-12-18T12:58:17;0.00;99.90
37594;DHT22;23441;50.856;6.076;2022-12-18T13:00:56;0.00;99.90
37594;DHT22;23441;50.856;6.076;2022-12-18T13:03:46;0.10;99.90
37594;DHT22;23441;50.856;6.076;2022-12-18T13:09:01;0.10;99.90
37594;DHT22;23441;50.856;6.076;2022-12-18T13:14:24;0.20;99.90
37594;DHT22;23441;50.856;6.076;2022-12-18T13:16:50;0.20;99.90
37594;DHT22;23441;50.856;6.076;2022-12-18T13:19:22;0.20;99.90
37594;DHT22;23441;50.856;6.076;2022-12-18T13:21:55;0.20;99.90
37594;DHT22;23441;50.856;6.076;2022-12-18T13:24:30;0.20;99.90
37594;DHT22;23441;50.856;6.076;2022-12-18T13:26:56;0.10;99.90
37594;DHT22;23441;50.856;6.076;2022-12-18T13:29:44;0.10;99.90
37594;DHT22;23441;50.856;6.076;2022-12-18T13:32:28;0.10;99.90
37594;DHT22;23441;50.856;6.076;2022-12-18T13:37:54;0.10;99.90
37594;DHT22;23441;50.856;6.076;2022-12-18T13:45:47;0.20;99.90
37594;DHT22;23441;50.856;6.076;2022-12-18T13:48:22;0.10;99.90
37594;DHT22;23441;50.856;6.076;2022-12-18T13:50:53;0.20;99.90
37594;DHT22;23441;50.856;6.076;2022-12-18T13:53:24;0.20;99.90
37594;DHT22;23441;50.856;6.076;2022-12-18T13:55:51;0.20;99.90
37594;DHT22;23441;50.856;6.076;2022-12-18T13:58:17;0.20;99.90
37594;DHT22;23441;50.856;6.076;2022-12-18T14:00:43;0.20;99.90
37594;DHT22;23441;50.856;6.076;2022-12-18T14:03:27;0.20;99.90
37594;DHT22;23441;50.856;6.076;2022-12-18T14:06:00;0.30;99.90
37594;DHT22;23441;50.856;6.076;2022-12-18T14:08:32;0.30;99.90
37594;DHT22;23441;50.856;6.076;2022-12-18T14:10:58;0.30;99.90
37594;DHT22;23441;50.856;6.076;2022-12-18T14:13:30;0.20;99.90
37594;DHT22;23441;50.856;6.076;2022-12-18T14:15:56;0.20;99.90
37594;DHT22;23441;50.856;6.076;2022-12-18T14:21:02;0.00;99.90
37594;DHT22;23441;50.856;6.076;2022-12-18T14:23:36;0.00;99.90
37594;DHT22;23441;50.856;6.076;2022-12-18T14:26:20;0.00;99.90
37594;DHT22;23441;50.856;6.076;2022-12-18T14:28:47;0.00;99.90
37594;DHT22;23441;50.856;6.076;2022-12-18T14:31:28;0.00;99.90
37594;DHT22;23441;50.856;6.076;2022-12-18T14:33:55;0.00;99.90
37594;DHT22;23441;50.856;6.076;2022-12-18T14:36:26;0.00;99.90
37594;DHT22;23441;50.856;6.076;2022-12-18T14:38:54;-0.10;99.90
37594;DHT22;23441;50.856;6.076;2022-12-18T14:41:21;-0.10;99.90
37594;DHT22;23441;50.856;6.076;2022-12-18T14:43:49;-0.10;99.90
37594;DHT22;23441;50.856;6.076;2022-12-18T14:46:35;-0.10;99.90
37594;DHT22;23441;50.856;6.076;2022-12-18T14:51:55;-0.10;99.90
37594;DHT22;23441;50.856;6.076;2022-12-18T14:54:22;-0.10;99.90
37594;DHT22;23441;50.856;6.076;2022-12-18T14:57:35;-0.10;99.90
37594;DHT22;23441;50.856;6.076;2022-12-18T14:59:35;-0.10;99.90
37594;DHT22;23441;50.856;6.076;2022-12-18T15:02:15;-0.10;99.90
37594;DHT22;23441;50.856;6.076;2022-12-18T15:04:44;-0.10;99.90
37594;DHT22;23441;50.856;6.076;2022-12-18T15:09:40;-0.30;99.90
37594;DHT22;23441;50.856;6.076;2022-12-18T15:12:28;-0.30;99.90
37594;DHT22;23441;50.856;6.076;2022-12-18T15:14:58;-0.30;99.90
37594;DHT22;23441;50.856;6.076;2022-12-18T15:17:24;-0.30;99.90
37594;DHT22;23441;50.856;6.076;2022-12-18T15:19:52;-0.30;99.90
37594;DHT22;23441;50.856;6.076;2022-12-18T15:22:24;-0.30;99.90
37594;DHT22;23441;50.856;6.076;2022-12-18T15:24:50;-0.30;99.90
37594;DHT22;23441;50.856;6.076;2022-12-18T15:27:32;-0.30;99.90
37594;DHT22;23441;50.856;6.076;2022-12-18T15:32:28;-0.30;99.90
37594;DHT22;23441;50.856;6.076;2022-12-18T15:35:14;-0.40;99.90
37594;DHT22;23441;50.856;6.076;2022-12-18T15:37:40;-0.40;99.90
37594;DHT22;23441;50.856;6.076;2022-12-18T15:40:07;-0.50;99.90
37594;DHT22;23441;50.856;6.076;2022-12-18T15:42:33;-0.50;99.90
37594;DHT22;23441;50.856;6.076;2022-12-18T15:45:17;-0.60;99.90
37594;DHT22;23441;50.856;6.076;2022-12-18T15:47:43;-0.60;99.90
37594;DHT22;23441;50.856;6.076;2022-12-18T15:50:09;-0.70;99.90
37594;DHT22;23441;50.856;6.076;2022-12-18T15:52:43;-0.70;99.90
37594;DHT22;23441;50.856;6.076;2022-12-18T15:55:21;-0.70;99.90
37594;DHT22;23441;50.856;6.076;2022-12-18T15:58:06;-0.70;99.90
37594;DHT22;23441;50.856;6.076;2022-12-18T16:00:34;-0.70;99.90
37594;DHT22;23441;50.856;6.076;2022-12-18T16:03:00;-0.70;99.90
37594;DHT22;23441;50.856;6.076;2022-12-18T16:05:27;-0.70;99.90
37594;DHT22;23441;50.856;6.076;2022-12-18T16:07:53;-0.70;99.90
37594;DHT22;23441;50.856;6.076;2022-12-18T16:10:19;-0.70;99.90
37594;DHT22;23441;50.856;6.076;2022-12-18T16:12:45;-0.70;99.90
37594;DHT22;23441;50.856;6.076;2022-12-18T16:15:13;-0.60;99.90
37594;DHT22;23441;50.856;6.076;2022-12-18T16:17:39;-0.70;99.90
37594;DHT22;23441;50.856;6.076;2022-12-18T16:20:08;-0.70;99.90
37594;DHT22;23441;50.856;6.076;2022-12-18T16:22:37;-0.70;99.90
37594;DHT22;23441;50.856;6.076;2022-12-18T16:25:02;-0.70;99.90
37594;DHT22;23441;50.856;6.076;2022-12-18T16:27:30;-0.60;99.90
37594;DHT22;23441;50.856;6.076;2022-12-18T16:29:56;-0.60;99.90
37594;DHT22;23441;50.856;6.076;2022-12-18T16:32:22;-0.70;99.90
37594;DHT22;23441;50.856;6.076;2022-12-18T16:34:47;-0.70;99.90
37594;DHT22;23441;50.856;6.076;2022-12-18T16:37:15;-0.70;99.90
37594;DHT22;23441;50.856;6.076;2022-12-18T16:39:41;-0.70;99.90
37594;DHT22;23441;50.856;6.076;2022-12-18T16:42:17;-0.70;99.90
37594;DHT22;23441;50.856;6.076;2022-12-18T16:44:45;-0.60;99.90
37594;DHT22;23441;50.856;6.076;2022-12-18T16:47:11;-0.70;99.90
37594;DHT22;23441;50.856;6.076;2022-12-18T16:49:37;-0.60;99.90
37594;DHT22;23441;50.856;6.076;2022-12-18T16:52:04;-0.70;99.90
37594;DHT22;23441;50.856;6.076;2022-12-18T16:54:30;-0.70;99.90
37594;DHT22;23441;50.856;6.076;2022-12-18T16:56:56;-0.70;99.90
37594;DHT22;23441;50.856;6.076;2022-12-18T16:59:22;-0.60;99.90
37594;DHT22;23441;50.856;6.076;2022-12-18T17:01:47;-0.60;99.90
37594;DHT22;23441;50.856;6.076;2022-12-18T17:04:13;-0.70;99.90
37594;DHT22;23441;50.856;6.076;2022-12-18T17:06:41;-0.70;99.90
37594;DHT22;23441;50.856;6.076;2022-12-18T17:09:10;-0.70;99.90
37594;DHT22;23441;50.856;6.076;2022-12-18T17:11:36;-0.70;99.90
37594;DHT22;23441;50.856;6.076;2022-12-18T17:14:11;-0.70;99.90
37594;DHT22;23441;50.856;6.076;2022-12-18T17:16:37;-0.70;99.90
37594;DHT22;23441;50.856;6.076;2022-12-18T17:19:03;-0.70;99.90
37594;DHT22;23441;50.856;6.076;2022-12-18T17:21:29;-0.70;99.90
37594;DHT22;23441;50.856;6.076;2022-12-18T17:23:55;-0.70;99.90
37594;DHT22;23441;50.856;6.076;2022-12-18T17:26:20;-0.70;99.90
37594;DHT22;23441;50.856;6.076;2022-12-18T17:28:46;-0.70;99.90